sensor_id;sensor_type;location;lat;lon;timestamp;P1;durP1;ratioP1;P2;durP2;ratioP2
53145;SDS011;39042;53.150;5.898;2023-07-20T00:01:14;2.63;;;1.70;;
53145;SDS011;39042;53.150;5.898;2023-07-20T00:03:40;3.40;;;1.70;;
53145;SDS011;39042;53.150;5.898;2023-07-20T00:06:06;4.35;;;1.85;;
53145;SDS011;39042;53.150;5.898;2023-07-20T00:08:32;3.92;;;2.10;;
53145;SDS011;39042;53.150;5.898;2023-07-20T00:10:58;3.05;;;2.20;;
53145;SDS011;39042;53.150;5.898;2023-07-20T00:13:24;4.10;;;2.13;;
53145;SDS011;39042;53.150;5.898;2023-07-20T00:15:51;3.00;;;2.38;;
53145;SDS011;39042;53.150;5.898;2023-07-20T00:18:17;2.47;;;1.90;;
53145;SDS011;39042;53.150;5.898;2023-07-20T00:20:43;4.18;;;2.50;;
53145;SDS011;39042;53.150;5.898;2023-07-20T00:23:09;2.80;;;2.10;;
53145;SDS011;39042;53.150;5.898;2023-07-20T00:25:35;3.17;;;2.40;;
53145;SDS011;39042;53.150;5.898;2023-07-20T00:28:01;2.53;;;2.15;;
53145;SDS011;39042;53.150;5.898;2023-07-20T00:30:27;2.83;;;2.25;;
53145;SDS011;39042;53.150;5.898;2023-07-20T00:32:53;5.63;;;2.50;;
53145;SDS011;39042;53.150;5.898;2023-07-20T00:35:19;2.67;;;2.15;;
53145;SDS011;39042;53.150;5.898;2023-07-20T00:37:45;3.35;;;2.25;;
53145;SDS011;39042;53.150;5.898;2023-07-20T00:40:10;6.17;;;2.47;;
53145;SDS011;39042;53.150;5.898;2023-07-20T00:42:36;5.68;;;3.05;;
53145;SDS011;39042;53.150;5.898;2023-07-20T00:45:02;4.05;;;3.38;;
53145;SDS011;39042;53.150;5.898;2023-07-20T00:47:28;4.97;;;3.30;;
53145;SDS011;39042;53.150;5.898;2023-07-20T00:49:54;3.58;;;3.05;;
53145;SDS011;39042;53.150;5.898;2023-07-20T00:52:21;4.93;;;3.50;;
53145;SDS011;39042;53.150;5.898;2023-07-20T00:54:48;5.05;;;3.80;;
53145;SDS011;39042;53.150;5.898;2023-07-20T00:57:15;5.28;;;4.07;;
53145;SDS011;39042;53.150;5.898;2023-07-20T00:59:42;4.95;;;3.65;;
53145;SDS011;39042;53.150;5.898;2023-07-20T01:02:09;5.65;;;4.57;;
53145;SDS011;39042;53.150;5.898;2023-07-20T01:04:34;5.93;;;4.22;;
53145;SDS011;39042;53.150;5.898;2023-07-20T01:07:13;6.40;;;4.68;;
53145;SDS011;39042;53.150;5.898;2023-07-20T01:09:45;6.45;;;4.35;;
53145;SDS011;39042;53.150;5.898;2023-07-20T01:13:01;6.82;;;4.30;;
53145;SDS011;39042;53.150;5.898;2023-07-20T01:15:09;6.65;;;4.47;;
53145;SDS011;39042;53.150;5.898;2023-07-20T01:17:36;6.10;;;4.53;;
53145;SDS011;39042;53.150;5.898;2023-07-20T01:20:01;6.00;;;4.67;;
53145;SDS011;39042;53.150;5.898;2023-07-20T01:28:44;6.50;;;4.22;;
53145;SDS011;39042;53.150;5.898;2023-07-20T01:30:59;5.80;;;4.43;;
53145;SDS011;39042;53.150;5.898;2023-07-20T01:33:43;5.07;;;4.30;;
53145;SDS011;39042;53.150;5.898;2023-07-20T01:36:12;7.40;;;3.85;;
53145;SDS011;39042;53.150;5.898;2023-07-20T01:38:39;4.43;;;3.15;;
53145;SDS011;39042;53.150;5.898;2023-07-20T01:41:06;7.07;;;3.50;;
53145;SDS011;39042;53.150;5.898;2023-07-20T01:43:33;3.47;;;2.95;;
53145;SDS011;39042;53.150;5.898;2023-07-20T01:45:59;5.70;;;3.25;;
53145;SDS011;39042;53.150;5.898;2023-07-20T01:48:26;4.82;;;3.65;;
53145;SDS011;39042;53.150;5.898;2023-07-20T01:50:52;3.45;;;3.03;;
53145;SDS011;39042;53.150;5.898;2023-07-20T01:53:18;4.43;;;3.33;;
53145;SDS011;39042;53.150;5.898;2023-07-20T01:55:47;6.03;;;3.55;;
53145;SDS011;39042;53.150;5.898;2023-07-20T01:58:13;5.10;;;3.25;;
53145;SDS011;39042;53.150;5.898;2023-07-20T02:00:39;4.78;;;3.88;;
53145;SDS011;39042;53.150;5.898;2023-07-20T02:03:05;5.90;;;4.13;;
53145;SDS011;39042;53.150;5.898;2023-07-20T02:05:30;5.00;;;3.73;;
53145;SDS011;39042;53.150;5.898;2023-07-20T02:07:56;7.00;;;4.00;;
53145;SDS011;39042;53.150;5.898;2023-07-20T02:10:22;6.07;;;4.17;;
53145;SDS011;39042;53.150;5.898;2023-07-20T02:12:48;8.13;;;4.27;;
53145;SDS011;39042;53.150;5.898;2023-07-20T02:15:14;6.17;;;4.50;;
53145;SDS011;39042;53.150;5.898;2023-07-20T02:17:42;7.28;;;4.60;;
53145;SDS011;39042;53.150;5.898;2023-07-20T02:20:08;6.80;;;4.30;;
53145;SDS011;39042;53.150;5.898;2023-07-20T02:22:38;8.13;;;4.82;;
53145;SDS011;39042;53.150;5.898;2023-07-20T02:25:05;7.32;;;4.97;;
53145;SDS011;39042;53.150;5.898;2023-07-20T02:27:32;6.85;;;4.80;;
53145;SDS011;39042;53.150;5.898;2023-07-20T02:29:59;6.03;;;4.63;;
53145;SDS011;39042;53.150;5.898;2023-07-20T02:32:25;8.15;;;5.40;;
53145;SDS011;39042;53.150;5.898;2023-07-20T02:34:53;7.30;;;4.95;;
53145;SDS011;39042;53.150;5.898;2023-07-20T02:37:19;7.57;;;5.23;;
53145;SDS011;39042;53.150;5.898;2023-07-20T02:39:45;6.70;;;4.70;;
53145;SDS011;39042;53.150;5.898;2023-07-20T02:42:10;6.30;;;4.88;;
53145;SDS011;39042;53.150;5.898;2023-07-20T02:44:36;6.37;;;4.70;;
53145;SDS011;39042;53.150;5.898;2023-07-20T02:47:02;4.93;;;4.40;;
53145;SDS011;39042;53.150;5.898;2023-07-20T02:49:28;7.77;;;4.47;;
53145;SDS011;39042;53.150;5.898;2023-07-20T02:51:54;7.90;;;4.37;;
53145;SDS011;39042;53.150;5.898;2023-07-20T02:54:20;7.07;;;4.53;;
53145;SDS011;39042;53.150;5.898;2023-07-20T02:56:47;6.38;;;4.40;;
53145;SDS011;39042;53.150;5.898;2023-07-20T02:59:12;7.83;;;4.37;;
53145;SDS011;39042;53.150;5.898;2023-07-20T03:01:38;5.30;;;4.23;;
53145;SDS011;39042;53.150;5.898;2023-07-20T03:04:04;5.57;;;4.23;;
53145;SDS011;39042;53.150;5.898;2023-07-20T03:06:30;6.10;;;4.60;;
53145;SDS011;39042;53.150;5.898;2023-07-20T03:08:56;6.47;;;4.93;;
53145;SDS011;39042;53.150;5.898;2023-07-20T03:11:23;7.05;;;4.95;;
53145;SDS011;39042;53.150;5.898;2023-07-20T03:13:49;7.07;;;4.60;;
53145;SDS011;39042;53.150;5.898;2023-07-20T03:18:44;5.20;;;3.83;;
53145;SDS011;39042;53.150;5.898;2023-07-20T03:21:10;6.15;;;4.57;;
53145;SDS011;39042;53.150;5.898;2023-07-20T03:23:37;7.18;;;4.82;;
53145;SDS011;39042;53.150;5.898;2023-07-20T03:26:07;7.22;;;4.63;;
53145;SDS011;39042;53.150;5.898;2023-07-20T03:28:36;6.88;;;5.00;;
53145;SDS011;39042;53.150;5.898;2023-07-20T03:31:03;7.57;;;5.07;;
53145;SDS011;39042;53.150;5.898;2023-07-20T03:33:33;7.32;;;4.70;;
53145;SDS011;39042;53.150;5.898;2023-07-20T03:36:00;11.57;;;5.25;;
53145;SDS011;39042;53.150;5.898;2023-07-20T03:38:26;5.78;;;3.42;;
53145;SDS011;39042;53.150;5.898;2023-07-20T03:40:54;8.65;;;5.35;;
53145;SDS011;39042;53.150;5.898;2023-07-20T03:43:21;8.68;;;4.90;;
53145;SDS011;39042;53.150;5.898;2023-07-20T03:45:49;9.20;;;5.28;;
53145;SDS011;39042;53.150;5.898;2023-07-20T03:48:16;7.07;;;4.75;;
53145;SDS011;39042;53.150;5.898;2023-07-20T03:50:46;8.13;;;5.53;;
53145;SDS011;39042;53.150;5.898;2023-07-20T03:53:13;7.65;;;5.43;;
53145;SDS011;39042;53.150;5.898;2023-07-20T03:55:40;6.18;;;5.20;;
53145;SDS011;39042;53.150;5.898;2023-07-20T03:58:09;9.02;;;5.40;;
53145;SDS011;39042;53.150;5.898;2023-07-20T04:00:35;6.73;;;5.07;;
53145;SDS011;39042;53.150;5.898;2023-07-20T04:03:01;8.93;;;5.47;;
53145;SDS011;39042;53.150;5.898;2023-07-20T04:05:27;6.27;;;5.13;;
53145;SDS011;39042;53.150;5.898;2023-07-20T04:07:53;6.63;;;4.97;;
53145;SDS011;39042;53.150;5.898;2023-07-20T04:10:19;7.10;;;4.97;;
53145;SDS011;39042;53.150;5.898;2023-07-20T04:12:45;7.07;;;5.50;;
53145;SDS011;39042;53.150;5.898;2023-07-20T04:15:12;7.50;;;5.25;;
53145;SDS011;39042;53.150;5.898;2023-07-20T04:17:40;8.82;;;4.60;;
53145;SDS011;39042;53.150;5.898;2023-07-20T04:22:32;5.13;;;3.63;;
53145;SDS011;39042;53.150;5.898;2023-07-20T04:24:58;4.32;;;3.13;;
53145;SDS011;39042;53.150;5.898;2023-07-20T04:27:24;5.63;;;2.88;;
53145;SDS011;39042;53.150;5.898;2023-07-20T04:29:51;6.28;;;3.38;;
53145;SDS011;39042;53.150;5.898;2023-07-20T04:32:17;4.10;;;2.25;;
53145;SDS011;39042;53.150;5.898;2023-07-20T04:34:43;2.30;;;2.10;;
53145;SDS011;39042;53.150;5.898;2023-07-20T04:37:09;3.30;;;2.22;;
53145;SDS011;39042;53.150;5.898;2023-07-20T04:39:34;2.60;;;2.10;;
53145;SDS011;39042;53.150;5.898;2023-07-20T04:42:05;4.15;;;2.03;;
53145;SDS011;39042;53.150;5.898;2023-07-20T04:44:31;3.00;;;1.85;;
53145;SDS011;39042;53.150;5.898;2023-07-20T04:46:57;2.42;;;2.13;;
53145;SDS011;39042;53.150;5.898;2023-07-20T04:49:23;2.25;;;2.05;;
53145;SDS011;39042;53.150;5.898;2023-07-20T04:51:49;2.70;;;2.05;;
53145;SDS011;39042;53.150;5.898;2023-07-20T04:54:17;4.00;;;2.20;;
53145;SDS011;39042;53.150;5.898;2023-07-20T04:56:45;2.60;;;1.85;;
53145;SDS011;39042;53.150;5.898;2023-07-20T04:59:12;4.70;;;2.10;;
53145;SDS011;39042;53.150;5.898;2023-07-20T05:01:38;4.22;;;1.80;;
53145;SDS011;39042;53.150;5.898;2023-07-20T05:04:04;2.97;;;2.15;;
53145;SDS011;39042;53.150;5.898;2023-07-20T05:06:30;3.65;;;2.08;;
53145;SDS011;39042;53.150;5.898;2023-07-20T05:08:56;4.25;;;1.90;;
53145;SDS011;39042;53.150;5.898;2023-07-20T05:11:22;3.63;;;1.52;;
53145;SDS011;39042;53.150;5.898;2023-07-20T05:13:48;2.65;;;1.83;;
53145;SDS011;39042;53.150;5.898;2023-07-20T05:16:14;4.47;;;2.33;;
53145;SDS011;39042;53.150;5.898;2023-07-20T05:18:40;2.47;;;1.90;;
53145;SDS011;39042;53.150;5.898;2023-07-20T05:21:07;4.10;;;1.83;;
53145;SDS011;39042;53.150;5.898;2023-07-20T05:23:33;3.40;;;2.17;;
53145;SDS011;39042;53.150;5.898;2023-07-20T05:26:00;3.20;;;2.03;;
53145;SDS011;39042;53.150;5.898;2023-07-20T05:28:26;5.45;;;2.38;;
53145;SDS011;39042;53.150;5.898;2023-07-20T05:30:52;2.80;;;2.47;;
53145;SDS011;39042;53.150;5.898;2023-07-20T05:33:19;3.47;;;2.38;;
53145;SDS011;39042;53.150;5.898;2023-07-20T05:35:45;2.58;;;2.30;;
53145;SDS011;39042;53.150;5.898;2023-07-20T05:38:11;5.60;;;2.60;;
53145;SDS011;39042;53.150;5.898;2023-07-20T05:40:38;5.03;;;2.30;;
53145;SDS011;39042;53.150;5.898;2023-07-20T05:43:05;3.92;;;2.58;;
53145;SDS011;39042;53.150;5.898;2023-07-20T05:45:31;2.83;;;2.10;;
53145;SDS011;39042;53.150;5.898;2023-07-20T05:47:57;2.10;;;2.00;;
53145;SDS011;39042;53.150;5.898;2023-07-20T05:50:23;3.05;;;2.40;;
53145;SDS011;39042;53.150;5.898;2023-07-20T05:52:49;4.80;;;2.33;;
53145;SDS011;39042;53.150;5.898;2023-07-20T05:55:17;5.85;;;1.50;;
53145;SDS011;39042;53.150;5.898;2023-07-20T05:57:43;4.38;;;1.75;;
53145;SDS011;39042;53.150;5.898;2023-07-20T06:00:09;3.10;;;1.38;;
53145;SDS011;39042;53.150;5.898;2023-07-20T06:02:37;2.13;;;1.10;;
53145;SDS011;39042;53.150;5.898;2023-07-20T06:05:04;3.65;;;1.30;;
53145;SDS011;39042;53.150;5.898;2023-07-20T06:09:57;5.97;;;1.40;;
53145;SDS011;39042;53.150;5.898;2023-07-20T06:12:23;3.53;;;1.20;;
53145;SDS011;39042;53.150;5.898;2023-07-20T06:14:49;4.03;;;0.95;;
53145;SDS011;39042;53.150;5.898;2023-07-20T06:17:15;4.57;;;1.05;;
53145;SDS011;39042;53.150;5.898;2023-07-20T06:19:41;1.83;;;1.00;;
53145;SDS011;39042;53.150;5.898;2023-07-20T06:22:07;3.38;;;1.33;;
53145;SDS011;39042;53.150;5.898;2023-07-20T06:24:33;2.75;;;0.55;;
53145;SDS011;39042;53.150;5.898;2023-07-20T06:26:59;4.80;;;0.75;;
53145;SDS011;39042;53.150;5.898;2023-07-20T06:29:25;1.63;;;0.40;;
53145;SDS011;39042;53.150;5.898;2023-07-20T06:31:51;1.80;;;0.40;;
53145;SDS011;39042;53.150;5.898;2023-07-20T06:34:16;3.25;;;0.63;;
53145;SDS011;39042;53.150;5.898;2023-07-20T06:36:42;2.10;;;0.32;;
53145;SDS011;39042;53.150;5.898;2023-07-20T06:39:08;0.97;;;0.27;;
53145;SDS011;39042;53.150;5.898;2023-07-20T06:41:34;1.02;;;0.32;;
53145;SDS011;39042;53.150;5.898;2023-07-20T06:44:00;1.98;;;0.30;;
53145;SDS011;39042;53.150;5.898;2023-07-20T06:46:26;2.15;;;0.40;;
53145;SDS011;39042;53.150;5.898;2023-07-20T06:48:52;0.93;;;0.20;;
53145;SDS011;39042;53.150;5.898;2023-07-20T06:51:19;1.90;;;0.35;;
53145;SDS011;39042;53.150;5.898;2023-07-20T06:53:45;4.43;;;0.40;;
53145;SDS011;39042;53.150;5.898;2023-07-20T06:56:11;1.98;;;0.22;;
53145;SDS011;39042;53.150;5.898;2023-07-20T06:58:37;2.35;;;0.40;;
53145;SDS011;39042;53.150;5.898;2023-07-20T07:01:07;1.70;;;0.65;;
53145;SDS011;39042;53.150;5.898;2023-07-20T07:03:33;2.38;;;0.88;;
53145;SDS011;39042;53.150;5.898;2023-07-20T07:05:59;3.10;;;0.60;;
53145;SDS011;39042;53.150;5.898;2023-07-20T07:08:25;2.38;;;0.50;;
53145;SDS011;39042;53.150;5.898;2023-07-20T07:10:51;3.92;;;1.00;;
53145;SDS011;39042;53.150;5.898;2023-07-20T07:13:18;4.38;;;0.63;;
53145;SDS011;39042;53.150;5.898;2023-07-20T07:18:10;3.45;;;0.70;;
53145;SDS011;39042;53.150;5.898;2023-07-20T07:20:36;3.10;;;0.80;;
53145;SDS011;39042;53.150;5.898;2023-07-20T07:23:02;1.23;;;0.50;;
53145;SDS011;39042;53.150;5.898;2023-07-20T07:25:28;5.38;;;0.82;;
53145;SDS011;39042;53.150;5.898;2023-07-20T07:30:22;1.77;;;0.40;;
53145;SDS011;39042;53.150;5.898;2023-07-20T07:32:48;1.80;;;0.52;;
53145;SDS011;39042;53.150;5.898;2023-07-20T07:35:14;2.53;;;0.60;;
53145;SDS011;39042;53.150;5.898;2023-07-20T07:37:40;3.13;;;0.60;;
53145;SDS011;39042;53.150;5.898;2023-07-20T07:40:06;4.82;;;0.77;;
53145;SDS011;39042;53.150;5.898;2023-07-20T07:42:33;2.60;;;0.50;;
53145;SDS011;39042;53.150;5.898;2023-07-20T07:44:59;5.97;;;0.75;;
53145;SDS011;39042;53.150;5.898;2023-07-20T07:47:25;3.25;;;0.50;;
53145;SDS011;39042;53.150;5.898;2023-07-20T07:49:51;5.47;;;0.80;;
53145;SDS011;39042;53.150;5.898;2023-07-20T07:52:17;2.83;;;0.82;;
53145;SDS011;39042;53.150;5.898;2023-07-20T07:54:43;4.65;;;1.02;;
53145;SDS011;39042;53.150;5.898;2023-07-20T07:57:09;3.83;;;0.82;;
53145;SDS011;39042;53.150;5.898;2023-07-20T07:59:34;3.65;;;1.08;;
53145;SDS011;39042;53.150;5.898;2023-07-20T08:02:04;3.90;;;0.65;;
53145;SDS011;39042;53.150;5.898;2023-07-20T08:04:30;3.40;;;0.90;;
53145;SDS011;39042;53.150;5.898;2023-07-20T08:06:56;4.15;;;0.70;;
53145;SDS011;39042;53.150;5.898;2023-07-20T08:09:24;3.53;;;1.20;;
53145;SDS011;39042;53.150;5.898;2023-07-20T08:11:50;4.80;;;1.10;;
53145;SDS011;39042;53.150;5.898;2023-07-20T08:14:16;4.10;;;0.65;;
53145;SDS011;39042;53.150;5.898;2023-07-20T08:16:42;2.53;;;0.90;;
53145;SDS011;39042;53.150;5.898;2023-07-20T08:19:08;3.33;;;0.85;;
53145;SDS011;39042;53.150;5.898;2023-07-20T08:21:34;2.55;;;0.90;;
53145;SDS011;39042;53.150;5.898;2023-07-20T08:24:00;2.53;;;0.60;;
53145;SDS011;39042;53.150;5.898;2023-07-20T08:26:25;5.13;;;1.05;;
53145;SDS011;39042;53.150;5.898;2023-07-20T08:28:51;3.00;;;0.85;;
53145;SDS011;39042;53.150;5.898;2023-07-20T08:31:17;4.40;;;1.05;;
53145;SDS011;39042;53.150;5.898;2023-07-20T08:33:43;2.72;;;1.00;;
53145;SDS011;39042;53.150;5.898;2023-07-20T08:36:09;3.65;;;1.35;;
53145;SDS011;39042;53.150;5.898;2023-07-20T08:38:35;4.82;;;0.73;;
53145;SDS011;39042;53.150;5.898;2023-07-20T08:41:01;3.35;;;0.88;;
53145;SDS011;39042;53.150;5.898;2023-07-20T08:43:27;3.33;;;0.80;;
53145;SDS011;39042;53.150;5.898;2023-07-20T08:45:56;2.95;;;0.63;;
53145;SDS011;39042;53.150;5.898;2023-07-20T08:48:22;5.20;;;1.00;;
53145;SDS011;39042;53.150;5.898;2023-07-20T08:50:53;3.45;;;0.57;;
53145;SDS011;39042;53.150;5.898;2023-07-20T08:53:19;4.50;;;0.63;;
53145;SDS011;39042;53.150;5.898;2023-07-20T08:55:45;3.75;;;0.80;;
53145;SDS011;39042;53.150;5.898;2023-07-20T08:58:15;3.35;;;0.80;;
53145;SDS011;39042;53.150;5.898;2023-07-20T09:00:42;3.30;;;0.35;;
53145;SDS011;39042;53.150;5.898;2023-07-20T09:03:09;2.90;;;0.40;;
53145;SDS011;39042;53.150;5.898;2023-07-20T09:05:36;4.50;;;0.40;;
53145;SDS011;39042;53.150;5.898;2023-07-20T09:08:05;2.55;;;0.40;;
53145;SDS011;39042;53.150;5.898;2023-07-20T09:10:31;4.60;;;0.65;;
53145;SDS011;39042;53.150;5.898;2023-07-20T09:12:57;5.10;;;0.65;;
53145;SDS011;39042;53.150;5.898;2023-07-20T09:15:22;2.72;;;0.90;;
53145;SDS011;39042;53.150;5.898;2023-07-20T09:17:49;3.30;;;0.40;;
53145;SDS011;39042;53.150;5.898;2023-07-20T09:20:16;1.15;;;0.25;;
53145;SDS011;39042;53.150;5.898;2023-07-20T09:22:43;4.68;;;0.50;;
53145;SDS011;39042;53.150;5.898;2023-07-20T09:25:13;2.45;;;0.43;;
53145;SDS011;39042;53.150;5.898;2023-07-20T09:27:42;1.85;;;0.70;;
53145;SDS011;39042;53.150;5.898;2023-07-20T09:30:09;2.58;;;0.52;;
53145;SDS011;39042;53.150;5.898;2023-07-20T09:32:48;3.58;;;0.90;;
53145;SDS011;39042;53.150;5.898;2023-07-20T09:35:16;2.25;;;0.50;;
53145;SDS011;39042;53.150;5.898;2023-07-20T09:37:51;2.28;;;0.35;;
53145;SDS011;39042;53.150;5.898;2023-07-20T09:40:20;2.40;;;0.30;;
53145;SDS011;39042;53.150;5.898;2023-07-20T09:45:12;4.88;;;0.32;;
53145;SDS011;39042;53.150;5.898;2023-07-20T09:50:05;2.00;;;0.40;;
53145;SDS011;39042;53.150;5.898;2023-07-20T09:52:37;2.60;;;0.50;;
53145;SDS011;39042;53.150;5.898;2023-07-20T09:55:06;4.55;;;0.40;;
53145;SDS011;39042;53.150;5.898;2023-07-20T09:57:33;3.90;;;0.68;;
53145;SDS011;39042;53.150;5.898;2023-07-20T10:00:00;1.67;;;0.40;;
53145;SDS011;39042;53.150;5.898;2023-07-20T10:02:28;1.52;;;0.40;;
53145;SDS011;39042;53.150;5.898;2023-07-20T10:04:58;3.53;;;0.65;;
53145;SDS011;39042;53.150;5.898;2023-07-20T10:07:28;2.50;;;0.70;;
53145;SDS011;39042;53.150;5.898;2023-07-20T10:09:55;1.40;;;0.40;;
53145;SDS011;39042;53.150;5.898;2023-07-20T10:12:24;2.28;;;0.30;;
53145;SDS011;39042;53.150;5.898;2023-07-20T10:14:54;1.83;;;0.47;;
53145;SDS011;39042;53.150;5.898;2023-07-20T10:17:33;1.92;;;0.55;;
53145;SDS011;39042;53.150;5.898;2023-07-20T10:20:02;2.15;;;0.40;;
53145;SDS011;39042;53.150;5.898;2023-07-20T10:22:30;3.28;;;0.70;;
53145;SDS011;39042;53.150;5.898;2023-07-20T10:25:01;1.48;;;0.50;;
53145;SDS011;39042;53.150;5.898;2023-07-20T10:27:29;4.13;;;0.85;;
53145;SDS011;39042;53.150;5.898;2023-07-20T10:29:55;2.47;;;0.40;;
53145;SDS011;39042;53.150;5.898;2023-07-20T10:32:24;1.30;;;0.43;;
53145;SDS011;39042;53.150;5.898;2023-07-20T10:34:51;3.10;;;0.60;;
53145;SDS011;39042;53.150;5.898;2023-07-20T10:40:38;2.13;;;0.55;;
53145;SDS011;39042;53.150;5.898;2023-07-20T10:43:05;2.90;;;0.50;;
53145;SDS011;39042;53.150;5.898;2023-07-20T10:45:39;3.53;;;0.70;;
53145;SDS011;39042;53.150;5.898;2023-07-20T10:48:24;0.73;;;0.40;;
53145;SDS011;39042;53.150;5.898;2023-07-20T10:53:44;3.88;;;0.57;;
53145;SDS011;39042;53.150;5.898;2023-07-20T10:56:28;3.30;;;0.60;;
53145;SDS011;39042;53.150;5.898;2023-07-20T10:58:58;1.40;;;0.60;;
53145;SDS011;39042;53.150;5.898;2023-07-20T11:01:36;2.70;;;0.60;;
53145;SDS011;39042;53.150;5.898;2023-07-20T11:04:02;3.45;;;0.50;;
53145;SDS011;39042;53.150;5.898;2023-07-20T11:06:33;2.50;;;0.60;;
53145;SDS011;39042;53.150;5.898;2023-07-20T11:11:37;2.08;;;0.40;;
53145;SDS011;39042;53.150;5.898;2023-07-20T11:14:05;2.97;;;1.00;;
53145;SDS011;39042;53.150;5.898;2023-07-20T11:19:06;1.70;;;0.70;;
53145;SDS011;39042;53.150;5.898;2023-07-20T11:21:41;3.95;;;0.93;;
53145;SDS011;39042;53.150;5.898;2023-07-20T11:24:07;2.17;;;0.73;;
53145;SDS011;39042;53.150;5.898;2023-07-20T11:26:42;2.45;;;0.80;;
53145;SDS011;39042;53.150;5.898;2023-07-20T11:29:10;3.13;;;0.60;;
